Latest Weather Observations for Browse Island

IDW60801

Issued at 4:32 am WST Saturday 5 September 2015 (issued every 30 minutes, with the page automatically refreshed every 10 minutes)

About weather observations | Map of weather stations | Latest weather observations for WA | Other Formats
Station Details ID: 200784 Name: BROWSE ISLAND Lat: -14.11 Lon: 123.55 Height: 3.7 m
Data from the previous 72 hours. | See also: Recent months at Browse Island
Date/Time
WST
Temp
°C
App
Temp
°C
Dew
Point
Rel
Hum
%
Delta-T
°C
Wind Press
QNH
hPa
Press
MSL
hPa
Rain
since 9 am
mm
Dir
 
Spd
km/h
Gust
km/h
Spd
kts
Gust
kts
05/04:30am 26.0 - - - - SW 11 13 6 7 1015.0 - -
05/04:00am 25.7 - - - - SW 11 11 6 6 1015.0 1014.9 -
05/03:30am 26.0 - - - - WSW 7 - 4 - 1015.0 - -
05/03:00am 25.6 - - - - SW 7 - 4 - 1015.0 1014.9 -
05/02:30am 26.0 - - - - SSW 6 - 3 - 1015.0 - -
05/02:00am 25.8 - - - - S 6 - 3 - 1015.0 1015.2 -
05/01:30am 26.0 - - - - S 7 - 4 - 1015.0 - -
05/01:00am 25.8 - - - - SSW 9 - 5 - 1015.0 1015.4 -
05/12:30am 26.0 - - - - SSW 11 - 6 - 1015.0 - -
05/12:00am 25.9 - - - - SSW 9 - 5 - 1015.0 1015.7 -
 
Date/Time
WST
Temp
°C
App
Temp
°C
Dew
Point
Rel
Hum
%
Delta-T
°C
Wind Press
QNH
hPa
Press
MSL
hPa
Rain
since 9 am
mm
Dir
 
Spd
km/h
Gust
km/h
Spd
kts
Gust
kts
04/11:30pm 26.0 - - - - SSW 7 - 4 - 1016.0 - -
04/11:00pm 25.9 - - - - SW 7 - 4 - 1016.0 1016.2 -
04/10:30pm 26.0 - - - - SW 7 - 4 - 1016.0 - -
04/10:00pm 26.0 - - - - SW 7 - 4 - 1016.0 1016.2 -
04/09:30pm 26.0 - - - - SW 11 - 6 - 1016.0 - -
04/09:00pm 26.2 - - - - WSW 15 - 8 - 1016.0 1016.0 -
04/08:30pm 26.0 - - - - WSW 19 - 10 - 1015.0 - -
04/08:00pm 26.4 - - - - WSW 20 - 11 - 1015.0 1015.4 -
04/07:30pm 27.0 - - - - WSW 20 - 11 - 1015.0 - -
04/07:00pm 26.6 - - - - SW 19 - 10 - 1015.0 1015.2 -
04/06:30pm 27.0 - - - - SW 20 - 11 - 1015.0 - -
04/06:00pm 26.6 - - - - SW 22 - 12 - 1014.0 1014.7 -
04/05:30pm 27.0 - - - - SW 20 - 11 - 1014.0 - -
04/05:00pm 26.8 - - - - SW 19 - 10 - 1014.0 1014.4 -
04/04:30pm 27.0 - - - - SSW 17 - 9 - 1014.0 - -
04/04:00pm 26.9 - - - - SW 15 - 8 - 1014.0 1014.2 -
04/03:30pm 27.0 - - - - SSW 15 - 8 - 1014.0 - -
04/03:00pm 27.1 - - - - SSW 15 - 8 - 1014.0 1014.0 -
04/02:30pm 27.0 - - - - S 15 - 8 - 1014.0 - -
04/02:00pm 27.6 - - - - S 13 - 7 - 1014.0 1014.3 -
04/01:30pm 28.0 - - - - S 13 - 7 - 1014.0 - -
04/01:00pm 27.0 - - - - S 13 - 7 - 1014.0 1014.5 -
04/12:30pm 27.0 - - - - S 15 - 8 - 1014.0 - -
04/12:00pm 27.0 - - - - S 17 - 9 - 1015.0 1015.2 -
04/11:30am 27.0 - - - - S 19 - 10 - 1015.0 - -
04/11:00am 26.9 - - - - S 20 - 11 - 1016.0 1015.9 -
04/10:30am 27.0 - - - - S 22 - 12 - 1016.0 - -
04/10:00am 26.5 - - - - S 28 - 15 - 1016.0 1016.4 -
04/09:30am 27.0 - - - - S 30 - 16 - 1016.0 - -
04/09:00am 26.4 - - - - S 30 - 16 - 1016.0 1016.4 -
04/08:30am 26.0 - - - - S 33 - 18 - 1016.0 - -
04/08:00am 26.1 - - - - S 35 - 19 - 1016.0 1016.1 -
04/07:30am 26.0 - - - - S 35 - 19 - 1015.0 - -
04/07:00am 25.5 - - - - S 33 - 18 - 1015.0 1015.8 -
04/06:30am 26.0 - - - - S 32 - 17 - 1015.0 - -
04/06:00am 25.8 - - - - S 28 - 15 - 1015.0 1015.7 -
04/05:30am 26.0 - - - - SSW 28 - 15 - 1015.0 - -
04/05:00am 25.5 - - - - SSW 24 - 13 - 1015.0 1015.3 -
04/04:30am 26.0 - - - - SSW 22 - 12 - 1015.0 - -
04/04:00am 25.7 - - - - SSW 20 - 11 - 1015.0 1015.0 -
04/03:30am 26.0 - - - - SSW 20 - 11 - 1015.0 - -
04/03:00am 25.7 - - - - SSW 19 - 10 - 1015.0 1015.1 -
04/02:30am 26.0 - - - - SW 17 - 9 - 1015.0 - -
04/02:00am 25.6 - - - - SW 17 - 9 - 1015.0 1015.3 -
04/01:30am 26.0 - - - - SW 17 - 9 - 1015.0 - -
04/01:00am 25.4 - - - - SW 17 - 9 - 1015.0 1015.7 -
04/12:30am 25.0 - - - - SW 17 - 9 - 1016.0 - -
04/12:00am 25.4 - - - - SSW 20 - 11 - 1016.0 1016.1 -
 
Date/Time
WST
Temp
°C
App
Temp
°C
Dew
Point
Rel
Hum
%
Delta-T
°C
Wind Press
QNH
hPa
Press
MSL
hPa
Rain
since 9 am
mm
Dir
 
Spd
km/h
Gust
km/h
Spd
kts
Gust
kts
03/11:30pm 25.0 - - - - SSW 20 - 11 - 1016.0 - -
03/11:00pm 25.3 - - - - SW 20 - 11 - 1016.0 1016.5 -
03/10:30pm 25.0 - - - - SW 24 - 13 - 1016.0 - -
03/10:00pm 25.3 - - - - SW 22 - 12 - 1016.0 1016.7 -
03/09:30pm 25.0 - - - - SW 24 - 13 - 1016.0 - -
03/09:00pm 25.3 - - - - SW 26 - 14 - 1016.0 1016.4 -
03/08:30pm 25.0 - - - - SW 26 - 14 - 1016.0 - -
03/08:00pm 25.4 - - - - SW 28 - 15 - 1016.0 1016.2 -
03/07:30pm 25.0 - - - - SW 28 - 15 - 1016.0 - -
03/07:00pm 25.1 - - - - SW 24 - 13 - 1015.0 1015.5 -
03/06:30pm 26.0 - - - - SW 24 - 13 - 1015.0 - -
03/06:00pm 25.2 - - - - SW 22 - 12 - 1015.0 1015.2 -
03/05:30pm 25.0 - - - - SW 20 - 11 - 1015.0 - -
03/05:00pm 25.2 - - - - SW 20 - 11 - 1014.0 1014.5 -
03/04:30pm 26.0 - - - - SW 22 - 12 - 1014.0 - -
03/04:00pm 25.5 - - - - SW 20 - 11 - 1014.0 1014.4 -
03/03:30pm 25.0 - - - - SSW 22 - 12 - 1014.0 - -
03/03:00pm 25.4 - - - - SSW 20 - 11 - 1014.0 1014.7 -
03/02:30pm 25.0 - - - - SSW 24 - 13 - 1014.0 - -
03/02:00pm 25.4 - - - - SSW 26 - 14 - 1014.0 1014.7 -
03/01:30pm 25.0 - - - - SSW 26 - 14 - 1014.0 - -
03/01:00pm 25.4 - - - - SSW 24 - 13 - 1015.0 1015.3 -
03/12:30pm 25.0 - - - - SSW 20 - 11 - 1015.0 - -
03/12:00pm 25.4 - - - - SSW 20 - 11 - 1016.0 1016.0 -
03/11:30am 25.0 - - - - SSW 20 - 11 - 1016.0 - -
03/11:00am 25.2 - - - - SSW 22 - 12 - 1016.0 1016.6 -
03/10:30am 25.0 - - - - SSW 24 - 13 - 1016.0 - -
03/10:00am 25.3 - - - - SSW 22 - 12 - 1017.0 1017.3 -
03/09:30am 25.0 - - - - SSW 19 - 10 - 1017.0 - -
03/09:00am 25.2 - - - - S 20 - 11 - 1017.0 1017.5 -
03/08:30am 25.0 - - - - S 20 - 11 - 1017.0 - -
03/08:00am 24.8 - - - - S 20 - 11 - 1016.0 1016.8 -
03/07:30am 25.0 - - - - S 19 - 10 - 1016.0 - -
03/07:00am 24.7 - - - - S 19 - 10 - 1016.0 1016.6 -
03/06:30am 25.0 - - - - S 20 - 11 - 1016.0 - -
03/06:00am 24.6 - - - - S 20 - 11 - 1016.0 1016.2 -
03/05:30am 25.0 - - - - S 19 - 10 - 1015.0 - -
03/05:00am 24.5 - - - - S 19 - 10 - 1015.0 1015.3 -
03/04:30am 25.0 - - - - S 20 - 11 - 1015.0 - -
03/04:00am 24.6 - - - - S 20 - 11 - 1015.0 1015.0 -
03/03:30am 25.0 - - - - S 19 - 10 - 1015.0 - -
03/03:00am 24.8 - - - - S 20 - 11 - 1015.0 1014.9 -
03/02:30am 25.0 - - - - SSW 26 - 14 - 1014.0 - -
03/02:00am 24.7 - - - - SSW 24 - 13 - 1014.0 1014.7 -
03/01:30am 25.0 - - - - SSW 26 - 14 - 1015.0 - -
03/01:00am 24.9 - - - - SSW 24 - 13 - 1015.0 1015.4 -
03/12:30am 25.0 - - - - SSW 22 - 12 - 1015.0 - -
03/12:00am 24.9 - - - - SSW 20 - 11 - 1016.0 1016.2 -
 
Date/Time
WST
Temp
°C
App
Temp
°C
Dew
Point
Rel
Hum
%
Delta-T
°C
Wind Press
QNH
hPa
Press
MSL
hPa
Rain
since 9 am
mm
Dir
 
Spd
km/h
Gust
km/h
Spd
kts
Gust
kts
02/11:30pm 25.0 - - - - SSW 20 - 11 - 1016.0 - -
02/11:00pm 25.1 - - - - SSW 20 - 11 - 1016.0 1016.7 -
02/10:30pm 25.0 - - - - SW 20 - 11 - 1016.0 - -
02/10:00pm 25.1 - - - - SW 22 - 12 - 1016.0 1016.8 -
02/09:30pm 25.0 - - - - SSW 20 - 11 - 1016.0 - -
02/09:00pm 25.0 - - - - SW 20 - 11 - 1016.0 1016.5 -
02/08:30pm 25.0 - - - - SSW 20 - 11 - 1016.0 - -
02/08:00pm 25.1 - - - - SW 20 - 11 - 1016.0 1016.0 -
02/07:30pm 25.0 - - - - SSW 20 - 11 - 1015.0 - -
02/07:00pm 25.3 - - - - SW 20 - 11 - 1015.0 1015.4 -
02/06:30pm 25.0 - - - - SW 20 - 11 - 1015.0 - -
02/06:00pm 25.3 - - - - SW 24 - 13 - 1014.0 1014.7 -
02/05:30pm 26.0 - - - - SW 26 - 14 - 1014.0 - -
02/05:00pm 25.6 - - - - SSW 24 - 13 - 1014.0 1014.3 -
02/04:30pm 26.0 - - - - SW 24 - 13 - 1014.0 - -
02/04:00pm 25.7 - - - - SW 22 - 12 - 1014.0 1013.9 -
02/03:30pm 26.0 - - - - SW 22 - 12 - 1013.0 - -
02/03:00pm 25.8 - - - - SW 20 - 11 - 1013.0 1013.8 -
02/02:30pm 26.0 - - - - SSW 22 - 12 - 1013.0 - -
02/02:00pm 25.7 - - - - SSW 22 - 12 - 1014.0 1013.9 -
02/01:30pm 26.0 - - - - SW 20 - 11 - 1014.0 - -
02/01:00pm 25.6 - - - - SW 19 - 10 - 1014.0 1014.4 -
02/12:30pm 26.0 - - - - SSW 17 - 9 - 1014.0 - -
02/12:00pm 25.6 - - - - SSW 17 - 9 - 1015.0 1015.1 -
02/11:30am 25.0 - - - - SSW 17 - 9 - 1015.0 - -
02/11:00am 25.4 - - - - SSW 17 - 9 - 1016.0 1016.1 -
02/10:30am 26.0 - - - - SSW 13 - 7 - 1016.0 - -
02/10:00am 25.6 - - - - S 15 - 8 - 1016.0 1016.8 -
02/09:30am 25.0 - - - - S 13 - 7 - 1017.0 - -
02/09:00am 25.1 - - - - S 11 - 6 - 1017.0 1017.0 -
02/08:30am 25.0 - - - - S 13 - 7 - 1017.0 - -
02/08:00am 24.9 - - - - S 13 - 7 - 1016.0 1016.6 -
02/07:30am 25.0 - - - - S 11 - 6 - 1016.0 - -
02/07:00am 24.7 - - - - S 11 - 6 - 1016.0 1016.0 -
02/06:30am 25.0 - - - - S 13 - 7 - 1015.0 - -
02/06:00am 24.7 - - - - S 13 - 7 - 1015.0 1015.4 -
02/05:30am 25.0 - - - - S 15 - 8 - 1015.0 - -
02/05:00am 24.7 - - - - S 17 - 9 - 1014.0 1014.7 -

Other Formats:

Comma delimited format used in spreadsheet applications
http://www.bom.gov.au/fwo/IDW60801/IDW60801.94103.axf

JavaScript Object Notation format (JSON) in row-major order
http://www.bom.gov.au/fwo/IDW60801/IDW60801.94103.json